• Join FlightAware (Why Join?)
  • Login
  • US Flag 
01:36PM EDT


 

Airport Tracker/Info


-or-


 

Live Flight TrackerFlight Track Log ✈ SWA315 ✈ 10-Apr-2013 ✈ KOAK - KPHX

Flight Track Log - Related Links

Times and Time Zones

All times are in EDT time to prevent confusion due to time zone crossing. See the SWA315 flight status page for this flight to view local times or setup timezone preferences in your user account.

Time Position Orientation Groundspeed Altitude Reporting Facility
EDT Latitude Longitude Course Direction KTS MPH feet Rate Location/Type
12:18AM 37.7333 -122.2500 299° West 143 165 1,200  Level Northern Cal TRACON
12:19AM 37.7572 -122.3042 299° West 170 196 4,200 3,180 Climbing Oakland Center
12:20AM 37.7681 -122.3750 281° West 197 227 8,200 4,140 Climbing Oakland Center
12:21AM 37.7333 -122.4333 233° Southwest 240 276 11,800 3,300 Climbing Northern Cal TRACON
12:22AM 37.6667 -122.3833 149° Southeast 316 364 14,300 2,460 Climbing Northern Cal TRACON
12:23AM 37.5947 -122.2689 128° Southeast 370 426 17,300 2,220 Climbing Oakland Center
12:24AM 37.5156 -122.1553 131° Southeast 427 491 19,400 2,280 Climbing Oakland Center
12:25AM 37.4306 -122.0350 132° Southeast 457 526 22,000 2,580 Climbing Oakland Center
12:26AM 37.3417 -121.9083 131° Southeast 479 551 24,700 2,820 Climbing Oakland Center
12:27AM 37.2458 -121.7717 131° Southeast 493 567 27,800 2,820 Climbing Oakland Center
12:28AM 37.1567 -121.6469 132° Southeast 483 556 30,500 2,280 Climbing Oakland Center
12:29AM 37.0519 -121.5011 132° Southeast 491 565 32,500 2,280 Climbing Oakland Center
12:30AM 36.9628 -121.3731 131° Southeast 490 564 35,200 2,340 Climbing Oakland Center
12:31AM 36.8744 -121.2528 133° Southeast 476 548 37,300 1,740 Climbing Oakland Center
12:32AM 36.7836 -121.1269 132° Southeast 469 540 38,800 780 Climbing Oakland Center
12:33AM 36.6958 -121.0081 133° Southeast 468 539 39,000 60 Climbing Oakland Center
12:34AM 36.6081 -120.8867 132° Southeast 471 542 39,000  Level Oakland Center
12:35AM 36.5175 -120.7644 133° Southeast 477 549 39,000  Level Oakland Center
12:36AM 36.4286 -120.6411 132° Southeast 479 551 39,000  Level Oakland Center
12:37AM 36.3386 -120.5200 133° Southeast 478 550 39,000  Level Oakland Center
12:38AM 36.2481 -120.4003 133° Southeast 477 549 39,000  Level Oakland Center
12:39AM 36.1603 -120.2819 133° Southeast 469 540 39,000  Level Oakland Center
12:40AM 36.0714 -120.1631 133° Southeast 467 537 39,000  Level Oakland Center
12:41AM 35.9833 -120.0458 133° Southeast 464 534 39,000  Level Oakland Center
12:42AM 35.8953 -119.9294 133° Southeast 463 533 39,000  Level Oakland Center
12:43AM 35.8089 -119.8136 133° Southeast 459 528 39,000  Level Oakland Center
12:44AM 35.7219 -119.6981 133° Southeast 459 528 39,000  Level Oakland Center
12:45AM 35.6350 -119.5814 133° Southeast 461 531 39,000  Level Oakland Center
12:47AM 35.5558 -119.4586 128° Southeast 458 527 39,000  Level Oakland Center
12:48AM 35.4611 -119.3117 128° Southeast 458 527 39,000  Level Oakland Center
12:48AM 35.4456 -119.2881 129° Southeast 457 526 39,000  Level Los Angeles Center
12:49AM 35.3644 -119.1636 129° Southeast 463 533 39,000  Level Los Angeles Center
12:50AM 35.2844 -119.0414 129° Southeast 460 529 39,000  Level Los Angeles Center
12:51AM 35.2028 -118.9181 129° Southeast 465 535 39,000  Level Los Angeles Center
12:52AM 35.1222 -118.7956 129° Southeast 463 533 39,000  Level Los Angeles Center
12:53AM 35.0408 -118.6731 129° Southeast 464 534 39,000  Level Los Angeles Center
12:54AM 34.9586 -118.5514 129° Southeast 464 534 39,000  Level Los Angeles Center
12:55AM 34.8664 -118.4147 129° Southeast 465 535 39,000  Level Los Angeles Center
12:56AM 34.7861 -118.2953 129° Southeast 461 531 39,000  Level Los Angeles Center
12:57AM 34.7050 -118.1761 130° Southeast 460 529 39,000  Level Los Angeles Center
12:58AM 34.6292 -118.0536 127° Southeast 459 528 39,000  Level Los Angeles Center
12:59AM 34.5844 -117.9094 111° Southeast 459 528 39,000  Level Los Angeles Center
01:00AM 34.5325 -117.7331 110° East 466 536 39,000  Level Los Angeles Center
01:01AM 34.4878 -117.5875 110° East 467 537 39,000  Level Los Angeles Center
01:02AM 34.4433 -117.4417 110° East 467 537 39,000  Level Los Angeles Center
01:03AM 34.3994 -117.2950 110° East 465 535 39,000  Level Los Angeles Center
01:04AM 34.3544 -117.1472 110° East 470 541 39,000  Level Los Angeles Center
01:05AM 34.3094 -117.0003 110° East 468 539 39,000  Level Los Angeles Center
01:06AM 34.2647 -116.8536 110° East 469 540 39,000  Level Los Angeles Center
01:07AM 34.2194 -116.7069 110° East 467 537 39,000  Level Los Angeles Center
01:08AM 34.1725 -116.5606 111° Southeast 468 539 39,000  Level Los Angeles Center
01:09AM 34.1211 -116.3861 110° East 476 548 39,000  Level Los Angeles Center
01:10AM 34.0742 -116.2425 112° Southeast 463 533 39,000  Level Los Angeles Center
01:11AM 34.0281 -116.0947 111° Southeast 468 539 39,000  Level Los Angeles Center
01:12AM 33.9808 -115.9481 111° Southeast 468 539 39,000  Level Los Angeles Center
01:13AM 33.9328 -115.7981 111° Southeast 477 549 39,000  Level Los Angeles Center
01:14AM 33.8850 -115.6497 111° Southeast 476 548 39,000  Level Los Angeles Center
01:15AM 33.8361 -115.5011 112° Southeast 476 548 39,000  Level Los Angeles Center
01:16AM 33.7886 -115.3544 111° Southeast 472 543 39,000  Level Los Angeles Center
01:17AM 33.7311 -115.1761 111° Southeast 476 548 39,000  Level Los Angeles Center
01:18AM 33.6825 -115.0300 112° Southeast 473 544 39,000  Level Los Angeles Center
01:19AM 33.6344 -114.8836 111° Southeast 473 544 39,000 -1,140 Level Los Angeles Center
01:20AM 33.5886 -114.7386 111° Southeast 467 537 36,700 -2,640 Descending Los Angeles Center
01:21AM 33.5611 -114.5872 102° East 469 540 33,600 -2,940 Descending Los Angeles Center
01:22AM 33.5428 -114.4803 102° East 472 543 31,600 -2,700 Descending Albuquerque Center
01:23AM 33.5117 -114.3281 104° East 472 543 29,000 -2,580 Descending Albuquerque Center
01:24AM 33.4839 -114.1808 103° East 460 529 26,500 -1,980 Descending Albuquerque Center
01:25AM 33.4564 -114.0381 103° East 446 513 25,000 -780 Descending Albuquerque Center
01:26AM 33.4375 -113.8983 99° East 430 495 25,000  Level Albuquerque Center
01:27AM 33.4183 -113.7575 99° East 429 494 25,000  Level Albuquerque Center
01:28AM 33.3972 -113.6169 100° East 430 495 25,000  Level Albuquerque Center
01:29AM 33.3769 -113.4731 100° East 436 502 25,000 -780 Level Albuquerque Center
01:30AM 33.3567 -113.3300 100° East 436 502 23,500 -1,920 Descending Albuquerque Center
01:31AM 33.3356 -113.1925 100° East 427 491 21,200 -2,280 Descending Albuquerque Center
01:32AM 33.3161 -113.0600 100° East 411 473 19,000 -2,400 Descending Albuquerque Center
01:33AM 33.2936 -112.9072 100° East 394 453 16,400 -1,560 Descending Albuquerque Center
01:34AM 33.2792 -112.7911 98° East 367 422 15,900 -360 Descending Albuquerque Center
01:35AM 33.2831 -112.6858 87° East 325 374 15,700 -720 Descending Albuquerque Center
01:36AM 33.2853 -112.5917 88° East 312 359 14,500 -1,440 Descending Albuquerque Center
01:37AM 33.2889 -112.4883 88° East 316 364 12,900 -1,680 Descending Albuquerque Center
01:38AM 33.2917 -112.3778 88° East 333 383 11,200 -1,140 Descending Albuquerque Center
01:39AM 33.2978 -112.2783 86° East 302 348 10,600 -900 Descending Albuquerque Center
01:40AM 33.3042 -112.1878 85° East 279 321 9,500 -1,320 Descending Albuquerque Center
01:41AM 33.3106 -112.1006 85° East 268 308 8,000 -1,560 Descending Albuquerque Center
01:42AM 33.3183 -112.0136 84° East 265 305 6,400 -1,440 Descending Albuquerque Center
01:43AM 33.3281 -111.9256 82° East 267 307 5,200 -1,020 Descending Albuquerque Center
01:44AM 33.3603 -111.8583 60° Northeast 221 254 4,400 -900 Descending Albuquerque Center
01:45AM 33.4097 -111.8794 340° North 192 221 3,400 -1,020 Descending Albuquerque Center
01:46AM 33.4311 -111.9156 305° West 158 182 2,400 -840 Descending Albuquerque Center
01:47AM 33.4314 -111.9594 270° West 133 153 1,700 -660 Descending Albuquerque Center
01:48AM 33.4306 -111.9989 269° West 133 153 1,100 -600 Descending Albuquerque Center